Time;durP1;ratioP1;P1;durP2;ratioP2;P2;SDS_P1;SDS_P2;PMS_P1;PMS_P2;Temp;Humidity;BMP_temperature;BMP_pressure;BME280_temperature;BME280_humidity;BME280_pressure;Samples;Min_cycle;Max_cycle;Signal;HPM_P1;HPM_P2
2022/07/13 00:01:39;;;;;;;3.03;2.27;;;;;;;;;;10331178;28;20129;-75
2022/07/13 00:06:39;;;;;;;7.25;2.70;;;;;;;;;;10314132;28;20126;-75
2022/07/13 00:11:40;;;;;;;4.40;2.95;;;;;;;;;;10313707;28;20034;-75
2022/07/13 00:16:40;;;;;;;3.42;2.50;;;;;;;;;;10313249;28;20039;-75
2022/07/13 00:21:46;;;;;;;10.10;3.65;;;;;;;;;;10314087;28;20496;-76
2022/07/13 00:26:46;;;;;;;6.13;2.78;;;;;;;;;;10314281;28;20046;-75
2022/07/13 00:31:47;;;;;;;3.85;2.47;;;;;;;;;;10313162;28;20092;-76
2022/07/13 00:36:50;;;;;;;5.95;2.67;;;;;;;;;;10313956;28;20037;-75
2022/07/13 00:41:50;;;;;;;3.28;2.50;;;;;;;;;;10314109;28;20026;-76
2022/07/13 00:46:54;;;;;;;6.00;2.50;;;;;;;;;;10330253;28;20039;-75
2022/07/13 00:51:54;;;;;;;11.13;5.18;;;;;;;;;;10312829;28;20047;-75
2022/07/13 00:56:59;;;;;;;2.77;2.47;;;;;;;;;;10312685;28;20518;-75
2022/07/13 01:01:59;;;;;;;2.63;2.42;;;;;;;;;;10319024;28;20289;-74
2022/07/13 01:07:00;;;;;;;2.30;2.10;;;;;;;;;;10320389;28;20124;-74
2022/07/13 01:12:00;;;;;;;6.97;3.33;;;;;;;;;;10320364;28;20030;-75
2022/07/13 01:17:01;;;;;;;4.77;1.20;;;;;;;;;;10319977;28;20041;-74
2022/07/13 01:22:03;;;;;;;6.53;1.83;;;;;;;;;;10319792;28;20290;-75
2022/07/13 01:27:03;;;;;;;1.45;1.35;;;;;;;;;;10319656;28;20515;-74
2022/07/13 01:32:03;;;;;;;2.22;1.45;;;;;;;;;;10337019;28;20062;-75
2022/07/13 01:37:04;;;;;;;3.53;2.00;;;;;;;;;;10319269;28;20026;-73
2022/07/13 01:42:04;;;;;;;2.75;1.60;;;;;;;;;;10322213;28;20026;-77
2022/07/13 01:47:08;;;;;;;4.40;1.87;;;;;;;;;;10305462;28;20061;-77
2022/07/13 01:52:08;;;;;;;3.97;2.15;;;;;;;;;;10318782;28;20331;-75
2022/07/13 01:57:09;;;;;;;2.40;2.20;;;;;;;;;;10318540;28;20041;-74
2022/07/13 02:02:09;;;;;;;2.88;2.15;;;;;;;;;;10318353;28;20337;-76
2022/07/13 02:07:09;;;;;;;3.55;2.92;;;;;;;;;;10335810;28;20038;-73
2022/07/13 02:12:09;;;;;;;3.63;2.83;;;;;;;;;;10317464;28;20121;-75
2022/07/13 02:17:10;;;;;;;4.88;2.78;;;;;;;;;;10317961;28;20030;-76
2022/07/13 02:22:10;;;;;;;6.50;3.20;;;;;;;;;;10318422;28;20030;-75
2022/07/13 02:27:10;;;;;;;5.82;3.20;;;;;;;;;;10317911;28;20034;-76
2022/07/13 02:32:10;;;;;;;5.68;3.78;;;;;;;;;;10317236;28;20041;-76
2022/07/13 02:37:11;;;;;;;8.75;3.97;;;;;;;;;;10317293;28;20462;-75
2022/07/13 02:42:11;;;;;;;5.28;3.58;;;;;;;;;;10317086;28;20022;-75
2022/07/13 02:47:12;;;;;;;12.18;4.13;;;;;;;;;;10334257;28;20057;-76
2022/07/13 02:52:12;;;;;;;4.88;3.50;;;;;;;;;;10316665;28;20133;-74
2022/07/13 02:57:12;;;;;;;8.25;3.55;;;;;;;;;;10316389;28;20510;-74
2022/07/13 03:02:12;;;;;;;14.13;3.97;;;;;;;;;;10315660;28;20497;-74
2022/07/13 03:07:13;;;;;;;8.97;3.67;;;;;;;;;;10315947;28;20045;-75
2022/07/13 03:12:13;;;;;;;13.32;4.60;;;;;;;;;;10315755;28;20125;-75
2022/07/13 03:17:13;;;;;;;6.05;3.90;;;;;;;;;;10315120;28;20038;-74
2022/07/13 03:22:14;;;;;;;21.53;11.80;;;;;;;;;;10298414;28;20030;-74
2022/07/13 03:27:14;;;;;;;19.02;11.10;;;;;;;;;;10332162;28;20039;-77
2022/07/13 03:32:14;;;;;;;12.93;7.30;;;;;;;;;;10315037;28;20069;-74
2022/07/13 03:37:15;;;;;;;12.05;6.75;;;;;;;;;;10314937;28;20038;-76
2022/07/13 03:42:15;;;;;;;15.73;6.37;;;;;;;;;;10314537;28;20477;-75
2022/07/13 03:47:15;;;;;;;10.40;5.20;;;;;;;;;;10314385;28;20042;-75
2022/07/13 03:52:16;;;;;;;5.30;4.75;;;;;;;;;;10314353;28;20041;-75
2022/07/13 03:57:16;;;;;;;10.03;5.23;;;;;;;;;;10313871;28;20230;-76
2022/07/13 04:02:16;;;;;;;12.10;5.05;;;;;;;;;;10313557;28;20081;-75
2022/07/13 04:07:16;;;;;;;10.05;5.25;;;;;;;;;;10313588;28;20042;-74
2022/07/13 04:12:21;;;;;;;6.97;3.85;;;;;;;;;;10313818;28;20085;-75
2022/07/13 04:17:21;;;;;;;9.43;3.35;;;;;;;;;;10313704;28;20049;-74
2022/07/13 04:22:21;;;;;;;7.78;3.42;;;;;;;;;;10314139;28;20510;-75
2022/07/13 04:27:21;;;;;;;5.80;3.33;;;;;;;;;;10313462;28;20042;-74
2022/07/13 04:32:22;;;;;;;9.37;2.93;;;;;;;;;;10313829;28;20129;-74
2022/07/13 04:37:22;;;;;;;3.55;2.03;;;;;;;;;;10313307;28;20121;-75
2022/07/13 04:42:22;;;;;;;11.30;2.67;;;;;;;;;;10312990;28;20105;-75
2022/07/13 04:47:22;;;;;;;10.88;4.15;;;;;;;;;;10312524;28;20116;-76
2022/07/13 04:52:24;;;;;;;12.68;4.65;;;;;;;;;;10312237;28;20415;-76
2022/07/13 04:57:25;;;;;;;5.88;3.65;;;;;;;;;;10329572;28;20097;-75
2022/07/13 05:02:25;;;;;;;10.48;4.72;;;;;;;;;;10311678;28;20596;-76
2022/07/13 05:07:25;;;;;;;13.18;4.57;;;;;;;;;;10311998;28;20100;-74
2022/07/13 05:12:25;;;;;;;4.07;3.50;;;;;;;;;;10329451;28;20076;-74
2022/07/13 05:17:26;;;;;;;10.88;4.18;;;;;;;;;;10311715;28;20045;-75
2022/07/13 05:22:26;;;;;;;12.52;4.30;;;;;;;;;;10311411;28;20421;-75
2022/07/13 05:27:26;;;;;;;14.85;4.93;;;;;;;;;;10328451;28;20045;-75
2022/07/13 05:32:26;;;;;;;13.43;5.10;;;;;;;;;;10311111;28;20121;-76
2022/07/13 05:37:27;;;;;;;10.05;5.22;;;;;;;;;;10328839;28;20038;-74
2022/07/13 05:42:28;;;;;;;10.50;3.15;;;;;;;;;;10311640;28;20118;-75
2022/07/13 05:47:28;;;;;;;9.93;3.75;;;;;;;;;;10316380;28;20434;-77
2022/07/13 05:52:29;;;;;;;8.77;2.30;;;;;;;;;;10317826;28;20038;-75
2022/07/13 05:57:29;;;;;;;13.65;2.45;;;;;;;;;;10317511;28;20038;-75
2022/07/13 06:02:29;;;;;;;5.13;2.17;;;;;;;;;;10334778;28;20085;-75
2022/07/13 06:07:30;;;;;;;5.57;1.60;;;;;;;;;;10335144;28;20047;-75
2022/07/13 06:12:30;;;;;;;4.72;1.80;;;;;;;;;;10317998;28;20124;-74
2022/07/13 06:17:30;;;;;;;4.57;1.17;;;;;;;;;;10335042;28;20050;-74
2022/07/13 06:22:31;;;;;;;10.23;1.08;;;;;;;;;;10317090;28;20034;-75
2022/07/13 06:27:32;;;;;;;4.65;1.38;;;;;;;;;;10316998;28;20073;-75
2022/07/13 06:32:32;;;;;;;9.88;1.65;;;;;;;;;;10316996;28;20065;-74
2022/07/13 06:37:32;;;;;;;7.72;1.25;;;;;;;;;;10333712;28;20455;-74
2022/07/13 06:42:32;;;;;;;7.95;1.02;;;;;;;;;;10316048;28;20137;-76
2022/07/13 06:47:33;;;;;;;4.72;0.90;;;;;;;;;;10316169;28;20416;-75
2022/07/13 06:52:33;;;;;;;2.45;0.95;;;;;;;;;;10316036;28;20122;-75
2022/07/13 06:57:34;;;;;;;5.20;0.93;;;;;;;;;;10314572;28;20457;-74
2022/07/13 07:02:36;;;;;;;7.47;1.35;;;;;;;;;;10315523;28;20519;-74
2022/07/13 07:07:40;;;;;;;7.20;1.60;;;;;;;;;;10315345;28;20116;-75
2022/07/13 07:12:40;;;;;;;2.28;0.77;;;;;;;;;;10315272;28;20045;-74
2022/07/13 07:17:47;;;;;;;3.33;0.63;;;;;;;;;;10314863;28;20045;-74
2022/07/13 07:22:47;;;;;;;2.47;1.20;;;;;;;;;;10314879;28;20031;-73
2022/07/13 07:27:48;;;;;;;3.28;0.77;;;;;;;;;;10314421;28;20042;-74
2022/07/13 07:32:48;;;;;;;3.88;0.80;;;;;;;;;;10314592;28;20110;-75
2022/07/13 07:37:49;;;;;;;5.30;0.68;;;;;;;;;;10313972;28;20034;-75
2022/07/13 07:42:49;;;;;;;5.93;0.90;;;;;;;;;;10313909;28;20044;-74
2022/07/13 07:47:49;;;;;;;2.45;1.00;;;;;;;;;;10313890;28;20030;-75
2022/07/13 07:52:51;;;;;;;4.53;1.15;;;;;;;;;;10313765;28;20058;-74
2022/07/13 07:57:52;;;;;;;5.57;0.75;;;;;;;;;;10330963;28;20026;-75
2022/07/13 08:02:52;;;;;;;1.35;0.40;;;;;;;;;;10330684;28;20069;-74
2022/07/13 08:07:53;;;;;;;1.97;0.80;;;;;;;;;;10313235;28;20035;-74
2022/07/13 08:12:53;;;;;;;5.43;0.80;;;;;;;;;;10297009;28;20532;-75
2022/07/13 08:17:54;;;;;;;2.80;0.63;;;;;;;;;;10312779;28;20041;-75
2022/07/13 08:22:54;;;;;;;2.97;0.70;;;;;;;;;;10313239;28;20114;-75
2022/07/13 08:27:55;;;;;;;2.27;0.50;;;;;;;;;;10313238;28;20038;-75
2022/07/13 08:32:55;;;;;;;2.25;0.80;;;;;;;;;;10312480;28;20046;-76
2022/07/13 08:43:15;;;;;;;6.07;0.80;;;;;;;;;;10330009;28;20456;-75
2022/07/13 08:48:20;;;;;;;2.15;0.80;;;;;;;;;;10329642;28;20117;-74
2022/07/13 08:53:21;;;;;;;2.30;0.45;;;;;;;;;;10329834;28;20097;-74
2022/07/13 08:58:22;;;;;;;2.05;0.90;;;;;;;;;;10312229;28;20046;-74
2022/07/13 09:03:23;;;;;;;2.20;0.70;;;;;;;;;;10329547;28;20034;-74
2022/07/13 09:08:23;;;;;;;2.22;0.60;;;;;;;;;;10311953;28;20117;-75
2022/07/13 09:13:40;;;;;;;4.43;0.63;;;;;;;;;;10312456;28;20508;-74
2022/07/13 09:18:41;;;;;;;2.33;0.60;;;;;;;;;;10311836;28;20100;-74
2022/07/13 09:23:42;;;;;;;1.80;0.50;;;;;;;;;;10318976;28;20542;-74
2022/07/13 09:28:46;;;;;;;2.30;0.45;;;;;;;;;;10319479;28;20030;-74
2022/07/13 09:33:46;;;;;;;5.82;1.02;;;;;;;;;;10319105;28;20034;-74
2022/07/13 09:38:47;;;;;;;2.00;0.90;;;;;;;;;;10336344;28;20412;-74
2022/07/13 09:49:15;;;;;;;3.80;0.90;;;;;;;;;;10336512;28;20026;-74
2022/07/13 09:54:15;;;;;;;4.47;0.40;;;;;;;;;;10318430;28;20145;-74
2022/07/13 09:59:17;;;;;;;2.65;0.57;;;;;;;;;;10318094;28;20496;-74
2022/07/13 10:04:17;;;;;;;4.53;0.98;;;;;;;;;;10318115;28;20050;-75
2022/07/13 10:09:26;;;;;;;3.25;0.50;;;;;;;;;;10317862;28;20033;-74
2022/07/13 10:14:26;;;;;;;0.80;0.35;;;;;;;;;;10335131;28;20562;-74
2022/07/13 10:19:28;;;;;;;1.15;0.35;;;;;;;;;;10317489;28;20081;-75
2022/07/13 10:24:28;;;;;;;2.25;0.55;;;;;;;;;;10334679;28;20030;-75
2022/07/13 10:29:31;;;;;;;2.37;0.90;;;;;;;;;;10334579;28;20045;-75
2022/07/13 10:34:51;;;;;;;1.15;0.52;;;;;;;;;;10316363;28;20277;-75
2022/07/13 10:40:11;;;;;;;3.42;1.20;;;;;;;;;;10332777;28;20033;-76
2022/07/13 10:45:44;;;;;;;6.38;1.15;;;;;;;;;;10316763;28;20030;-75
2022/07/13 10:50:54;;;;;;;1.83;0.93;;;;;;;;;;10315429;28;20511;-75
2022/07/13 10:55:59;;;;;;;0.98;0.47;;;;;;;;;;10315676;28;20536;-75
2022/07/13 11:01:00;;;;;;;3.10;0.40;;;;;;;;;;10333288;28;20042;-75
2022/07/13 11:06:05;;;;;;;1.75;0.47;;;;;;;;;;10299400;28;20108;-75
2022/07/13 11:11:18;;;;;;;3.10;1.50;;;;;;;;;;10315508;28;20125;-75
2022/07/13 11:16:38;;;;;;;1.05;0.35;;;;;;;;;;10332370;28;20074;-74
2022/07/13 11:21:57;;;;;;;3.85;0.60;;;;;;;;;;10314846;28;20030;-75
2022/07/13 11:26:59;;;;;;;2.13;0.70;;;;;;;;;;10330961;28;20038;-74
2022/07/13 11:32:00;;;;;;;7.13;1.00;;;;;;;;;;10315257;28;20042;-74
2022/07/13 11:37:01;;;;;;;3.38;0.80;;;;;;;;;;10314877;28;20408;-74
2022/07/13 11:42:05;;;;;;;1.17;0.50;;;;;;;;;;10313804;28;20046;-74
2022/07/13 11:47:06;;;;;;;4.55;0.52;;;;;;;;;;10313866;28;20034;-74
2022/07/13 11:52:06;;;;;;;1.20;0.50;;;;;;;;;;10313834;28;20039;-74
2022/07/13 11:57:06;;;;;;;2.22;0.52;;;;;;;;;;10313717;28;20039;-75
2022/07/13 12:02:11;;;;;;;6.25;1.08;;;;;;;;;;10330728;28;20042;-74
2022/07/13 12:07:12;;;;;;;5.22;1.27;;;;;;;;;;10313265;28;20045;-74
2022/07/13 12:12:12;;;;;;;0.40;0.40;;;;;;;;;;10313326;28;20026;-74
2022/07/13 12:17:12;;;;;;;2.25;0.80;;;;;;;;;;10312972;28;20277;-75
2022/07/13 12:22:12;;;;;;;3.35;0.60;;;;;;;;;;10330438;28;20033;-75
2022/07/13 12:27:26;;;;;;;4.27;0.93;;;;;;;;;;10312934;28;20121;-74
2022/07/13 12:32:26;;;;;;;3.03;0.55;;;;;;;;;;10312550;28;20510;-74
2022/07/13 12:37:36;;;;;;;3.67;1.42;;;;;;;;;;10329796;28;20184;-74
2022/07/13 12:42:45;;;;;;;1.70;0.90;;;;;;;;;;10312438;28;20057;-74
2022/07/13 12:47:46;;;;;;;1.30;1.00;;;;;;;;;;10330049;28;20420;-74
2022/07/13 12:53:01;;;;;;;0.90;0.60;;;;;;;;;;10312356;28;20037;-74
2022/07/13 12:58:02;;;;;;;1.23;0.40;;;;;;;;;;10337809;28;20066;-74
2022/07/13 13:03:02;;;;;;;2.08;0.73;;;;;;;;;;10337743;28;20073;-73
2022/07/13 13:08:02;;;;;;;1.93;0.67;;;;;;;;;;10320318;28;20037;-73
2022/07/13 13:13:05;;;;;;;2.63;0.60;;;;;;;;;;10320027;28;20033;-74
2022/07/13 13:18:06;;;;;;;5.30;1.27;;;;;;;;;;10319733;28;20117;-74
2022/07/13 13:23:06;;;;;;;2.80;0.52;;;;;;;;;;10320391;28;20582;-74
2022/07/13 13:28:07;;;;;;;9.15;2.35;;;;;;;;;;10319408;28;20046;-74
2022/07/13 13:33:07;;;;;;;3.83;0.80;;;;;;;;;;10319310;28;20417;-73
2022/07/13 13:38:09;;;;;;;2.05;0.68;;;;;;;;;;10319195;28;20038;-74
2022/07/13 13:43:11;;;;;;;1.67;1.00;;;;;;;;;;10318485;28;20034;-74
2022/07/13 13:48:11;;;;;;;2.85;0.60;;;;;;;;;;10318501;28;20100;-74
2022/07/13 13:53:11;;;;;;;2.63;1.30;;;;;;;;;;10318530;28;20607;-75
2022/07/13 13:58:12;;;;;;;7.78;1.50;;;;;;;;;;10318004;28;20034;-75
2022/07/13 14:03:12;;;;;;;6.68;1.50;;;;;;;;;;10317669;28;20057;-75
2022/07/13 14:08:12;;;;;;;0.90;0.63;;;;;;;;;;10317544;28;20046;-74
2022/07/13 14:13:13;;;;;;;3.50;0.63;;;;;;;;;;10317431;28;20093;-74
2022/07/13 14:18:14;;;;;;;8.30;1.95;;;;;;;;;;10334477;28;20157;-75
2022/07/13 14:23:14;;;;;;;5.40;1.15;;;;;;;;;;10317397;28;20034;-75
2022/07/13 14:28:15;;;;;;;3.47;0.88;;;;;;;;;;10334487;28;20046;-73
2022/07/13 14:33:15;;;;;;;2.20;0.63;;;;;;;;;;10316700;28;20057;-73
2022/07/13 14:38:16;;;;;;;7.30;1.17;;;;;;;;;;10316839;28;20034;-74
2022/07/13 14:43:16;;;;;;;1.58;0.60;;;;;;;;;;10317258;28;20035;-73
2022/07/13 14:48:17;;;;;;;1.70;0.60;;;;;;;;;;10315979;28;20091;-74
2022/07/13 14:53:19;;;;;;;1.30;0.88;;;;;;;;;;10315941;28;20348;-74
2022/07/13 14:58:20;;;;;;;2.03;0.73;;;;;;;;;;10315877;28;20061;-74
2022/07/13 15:03:20;;;;;;;1.40;0.70;;;;;;;;;;10315332;28;20077;-74
2022/07/13 15:08:20;;;;;;;1.80;0.73;;;;;;;;;;10315268;28;20038;-74
2022/07/13 15:13:21;;;;;;;10.00;1.33;;;;;;;;;;10315113;28;20493;-75
2022/07/13 15:18:21;;;;;;;3.75;1.00;;;;;;;;;;10314194;28;20034;-76
2022/07/13 15:23:22;;;;;;;3.17;1.15;;;;;;;;;;10315033;28;20038;-75
2022/07/13 15:28:22;;;;;;;4.60;2.38;;;;;;;;;;10314426;28;20133;-75
2022/07/13 15:33:23;;;;;;;2.90;1.50;;;;;;;;;;10314391;28;20038;-75
2022/07/13 15:38:24;;;;;;;8.27;1.23;;;;;;;;;;10331669;28;20035;-75
2022/07/13 15:43:24;;;;;;;4.65;1.60;;;;;;;;;;10314138;28;20042;-75
2022/07/13 15:48:24;;;;;;;7.93;1.10;;;;;;;;;;10331725;28;20494;-75
2022/07/13 15:53:24;;;;;;;2.53;1.20;;;;;;;;;;10313460;28;20034;-75
2022/07/13 15:58:25;;;;;;;2.37;1.33;;;;;;;;;;10331489;28;20360;-75
2022/07/13 16:03:25;;;;;;;2.08;1.00;;;;;;;;;;10297199;28;20600;-75
2022/07/13 16:08:25;;;;;;;2.50;0.60;;;;;;;;;;10313366;28;20061;-75
2022/07/13 16:13:26;;;;;;;2.70;0.70;;;;;;;;;;10313152;28;20033;-75
2022/07/13 16:18:26;;;;;;;2.75;1.30;;;;;;;;;;10313237;28;20492;-74
2022/07/13 16:23:28;;;;;;;4.82;0.90;;;;;;;;;;10312735;28;20581;-76
2022/07/13 16:28:28;;;;;;;1.65;1.08;;;;;;;;;;10329917;28;20053;-75
2022/07/13 16:33:28;;;;;;;4.93;0.70;;;;;;;;;;10312659;28;20030;-76
2022/07/13 16:38:29;;;;;;;2.45;0.95;;;;;;;;;;10313059;28;20031;-75
2022/07/13 16:43:29;;;;;;;1.38;0.95;;;;;;;;;;10329577;28;20109;-74
2022/07/13 16:48:29;;;;;;;2.72;0.90;;;;;;;;;;10312239;28;20427;-75
2022/07/13 16:53:29;;;;;;;1.23;1.08;;;;;;;;;;10312334;28;20492;-75
2022/07/13 16:58:31;;;;;;;2.45;1.33;;;;;;;;;;10329607;28;20050;-75
2022/07/13 17:03:31;;;;;;;3.72;2.20;;;;;;;;;;10311566;28;20042;-74
2022/07/13 17:08:33;;;;;;;1.55;1.08;;;;;;;;;;10328017;28;20137;-75
2022/07/13 17:13:34;;;;;;;3.63;1.10;;;;;;;;;;10311863;28;20114;-74
2022/07/13 17:23:55;;;;;;;55.55;7.38;;;;;;;;;;10328944;28;20022;-75
2022/07/13 17:28:55;;;;;;;3.47;1.10;;;;;;;;;;10311357;28;20464;-74
2022/07/13 17:33:55;;;;;;;1.53;1.20;;;;;;;;;;10328998;28;20034;-74
2022/07/13 17:38:55;;;;;;;4.60;1.50;;;;;;;;;;10311651;28;20058;-76
2022/07/13 17:43:59;;;;;;;1.42;1.10;;;;;;;;;;10334589;28;20492;-74
2022/07/13 17:48:59;;;;;;;4.35;1.25;;;;;;;;;;10318565;28;20045;-74
2022/07/13 17:53:59;;;;;;;4.25;1.33;;;;;;;;;;10335818;28;20034;-75
2022/07/13 17:59:00;;;;;;;3.88;1.20;;;;;;;;;;10317912;28;20034;-77
2022/07/13 18:04:00;;;;;;;7.45;2.40;;;;;;;;;;10317728;28;20045;-75
2022/07/13 18:09:01;;;;;;;2.10;1.10;;;;;;;;;;10317977;28;20472;-75
2022/07/13 18:14:01;;;;;;;2.10;1.02;;;;;;;;;;10317705;28;20034;-74
2022/07/13 18:19:02;;;;;;;2.08;1.20;;;;;;;;;;10317544;28;20030;-75
2022/07/13 18:24:04;;;;;;;3.25;1.20;;;;;;;;;;10334886;28;20493;-74
2022/07/13 18:29:06;;;;;;;8.85;1.77;;;;;;;;;;10300869;28;20037;-75
2022/07/13 18:34:09;;;;;;;3.95;1.05;;;;;;;;;;10316764;28;20115;-74
2022/07/13 18:39:13;;;;;;;2.72;1.05;;;;;;;;;;10316826;28;20039;-74
2022/07/13 18:44:13;;;;;;;3.42;1.70;;;;;;;;;;10316441;28;20408;-74
2022/07/13 18:49:14;;;;;;;3.75;1.33;;;;;;;;;;10316304;28;20026;-74
2022/07/13 18:54:15;;;;;;;4.22;1.98;;;;;;;;;;10315970;28;20031;-74
2022/07/13 18:59:18;;;;;;;3.65;1.83;;;;;;;;;;10316012;28;20051;-75
2022/07/13 19:04:23;;;;;;;7.28;1.77;;;;;;;;;;10316579;28;20043;-74
2022/07/13 19:09:28;;;;;;;3.85;1.65;;;;;;;;;;10315379;28;20069;-75
2022/07/13 19:14:29;;;;;;;3.40;1.67;;;;;;;;;;10332831;28;20436;-74
2022/07/13 19:19:31;;;;;;;12.02;2.25;;;;;;;;;;10315041;28;20038;-77
2022/07/13 19:29:51;;;;;;;2.55;1.45;;;;;;;;;;10333069;28;20022;-74
2022/07/13 19:34:51;;;;;;;2.35;1.40;;;;;;;;;;10298421;28;20026;-74
2022/07/13 19:39:52;;;;;;;5.50;2.10;;;;;;;;;;10314429;28;20117;-76
2022/07/13 19:44:54;;;;;;;1.98;1.48;;;;;;;;;;10331104;28;20468;-74
2022/07/13 19:49:57;;;;;;;6.82;1.60;;;;;;;;;;10331442;28;20125;-75
2022/07/13 19:54:58;;;;;;;8.45;1.30;;;;;;;;;;10314006;28;20088;-75
2022/07/13 19:59:59;;;;;;;2.03;1.25;;;;;;;;;;10313307;28;20401;-75
2022/07/13 20:04:59;;;;;;;2.92;1.45;;;;;;;;;;10313378;28;20031;-77
2022/07/13 20:10:00;;;;;;;2.40;1.40;;;;;;;;;;10313405;28;20121;-74
2022/07/13 20:15:01;;;;;;;4.60;1.40;;;;;;;;;;10331098;28;20086;-75
2022/07/13 20:20:02;;;;;;;1.55;1.17;;;;;;;;;;10312831;28;20534;-75
2022/07/13 20:25:04;;;;;;;6.15;1.55;;;;;;;;;;10330246;28;20086;-77
2022/07/13 20:30:05;;;;;;;2.38;1.17;;;;;;;;;;10296475;28;20393;-75
2022/07/13 20:35:05;;;;;;;1.63;1.30;;;;;;;;;;10312495;28;20039;-74
2022/07/13 20:40:06;;;;;;;2.88;1.30;;;;;;;;;;10312648;28;20100;-74
2022/07/13 20:45:06;;;;;;;4.07;1.55;;;;;;;;;;10312362;28;20420;-75
2022/07/13 20:50:07;;;;;;;3.67;2.70;;;;;;;;;;10312243;28;20117;-75
2022/07/13 20:55:07;;;;;;;3.72;1.90;;;;;;;;;;10312351;28;20499;-74
2022/07/13 21:00:08;;;;;;;8.00;1.48;;;;;;;;;;10311943;28;20050;-75
2022/07/13 21:05:08;;;;;;;3.38;1.70;;;;;;;;;;10311987;28;20030;-75
2022/07/13 21:10:09;;;;;;;1.40;1.00;;;;;;;;;;10312575;28;20434;-74
2022/07/13 21:15:13;;;;;;;6.18;1.70;;;;;;;;;;10331502;28;20328;-75
2022/07/13 21:20:13;;;;;;;5.45;2.55;;;;;;;;;;10337700;28;20040;-75
2022/07/13 21:25:58;;;;;;;3.83;1.55;;;;;;;;;;10319908;28;20038;-75
2022/07/13 21:30:34;;;;;;;2.58;1.58;;;;;;;;;;10337095;28;20122;-74
2022/07/13 21:35:34;;;;;;;3.05;1.38;;;;;;;;;;10336607;28;20129;-75
2022/07/13 21:40:34;;;;;;;3.13;1.08;;;;;;;;;;10319133;28;20471;-74
2022/07/13 21:45:35;;;;;;;5.43;1.42;;;;;;;;;;10318690;28;20056;-74
2022/07/13 21:50:35;;;;;;;2.67;0.90;;;;;;;;;;10318506;28;20481;-74
2022/07/13 21:55:35;;;;;;;2.65;1.25;;;;;;;;;;10318696;28;20456;-76
2022/07/13 22:00:35;;;;;;;5.00;1.45;;;;;;;;;;10318270;28;20085;-76
2022/07/13 22:05:44;;;;;;;6.90;1.53;;;;;;;;;;10301989;28;20034;-76
2022/07/13 22:11:03;;;;;;;1.83;1.40;;;;;;;;;;10317879;28;20043;-76
2022/07/13 22:16:22;;;;;;;1.20;1.10;;;;;;;;;;10333877;28;20031;-74
2022/07/13 22:21:41;;;;;;;1.48;1.17;;;;;;;;;;10334885;28;20409;-76
2022/07/13 22:27:00;;;;;;;4.18;1.63;;;;;;;;;;10333206;28;20030;-76
2022/07/13 22:32:19;;;;;;;2.95;1.40;;;;;;;;;;10334553;28;20591;-75
2022/07/13 22:37:38;;;;;;;5.03;1.90;;;;;;;;;;10332866;28;20034;-73
2022/07/13 22:42:56;;;;;;;1.70;1.50;;;;;;;;;;10334160;28;20041;-74
2022/07/13 22:48:15;;;;;;;2.38;1.48;;;;;;;;;;10332909;28;20196;-75
2022/07/13 22:53:34;;;;;;;3.10;1.10;;;;;;;;;;10332494;28;20089;-75
2022/07/13 22:58:53;;;;;;;6.50;1.17;;;;;;;;;;10332149;28;20134;-75
2022/07/13 23:04:13;;;;;;;5.95;1.42;;;;;;;;;;10315993;28;20081;-75
2022/07/13 23:09:31;;;;;;;1.75;1.10;;;;;;;;;;10315879;28;20034;-75
2022/07/13 23:14:51;;;;;;;2.22;1.05;;;;;;;;;;10332940;28;20492;-76
2022/07/13 23:20:09;;;;;;;3.25;1.42;;;;;;;;;;10332712;28;20049;-75
2022/07/13 23:25:28;;;;;;;4.47;1.40;;;;;;;;;;10315007;28;20026;-76
2022/07/13 23:30:48;;;;;;;2.15;1.10;;;;;;;;;;10314893;28;20045;-76
2022/07/13 23:35:49;;;;;;;2.53;1.40;;;;;;;;;;10314485;28;20027;-75
2022/07/13 23:40:49;;;;;;;1.38;1.10;;;;;;;;;;10313817;28;20030;-75
2022/07/13 23:45:49;;;;;;;1.63;1.23;;;;;;;;;;10314630;28;20124;-76
2022/07/13 23:50:49;;;;;;;1.50;1.10;;;;;;;;;;10314325;28;20026;-75
2022/07/13 23:55:50;;;;;;;5.38;1.65;;;;;;;;;;10314133;28;20030;-75
